This is the latest recevied weather packets stored in our database for station/object TG9ADI-20. If no packets are shown the sender has not sent any weather packets the latest 10 day(s).
| Time | Temp. | Humidity | Pressure | Rain* | Wind** | Luminosity | Snow |
|---|---|---|---|---|---|---|---|
| 1778255835 | 24.44° C | 69% | 1013 hPa | 0 mm | - | - | - |
| 1778255235 | 24.44° C | 69% | 1013 hPa | 0 mm | - | - | - |
| 1778254634 | 23.89° C | 70% | 1013 hPa | 0 mm | - | - | - |
| 1778254034 | 23.89° C | 79% | 1014 hPa | 0 mm | - | - | - |
| 1778253433 | 23.89° C | 79% | 1014 hPa | 0 mm | - | - | - |
| 1778252833 | 24.44° C | 69% | 1014 hPa | 0 mm | - | - | - |
| 1778252232 | 21.67° C | 83% | 1014 hPa | 0 mm | - | - | - |
| 1778251631 | 21.67° C | 83% | 1014 hPa | 0 mm | - | - | - |
| 1778251031 | 21.67° C | 83% | 1014 hPa | 0 mm | - | - | - |
| 1778250431 | 21.11° C | 88% | 1014 hPa | 0 mm | - | - | - |
| 1778249830 | 21.67° C | 83% | 1014 hPa | 0 mm | - | - | - |
| 1778249230 | 21.67° C | 83% | 1014 hPa | 0 mm | - | - | - |
| 1778248629 | 20.56° C | 88% | 1014 hPa | 0 mm | - | - | - |
| 1778248028 | 20.56° C | 88% | 1014 hPa | 0 mm | - | - | - |
| 1778247428 | 20.56° C | 88% | 1014 hPa | 0 mm | - | - | - |
| 1778246827 | 18.33° C | 97% | 1014 hPa | 0 mm | - | - | - |
| 1778246227 | 18.33° C | 97% | 1015 hPa | 0 mm | - | - | - |
| 1778245626 | 19.44° C | 93% | 1015 hPa | 0 mm | - | - | - |
| 1778245026 | 18.89° C | 10% | - | 0 mm | - | - | - |
| 1778244425 | 18.89° C | 10% | - | 0 mm | - | - | - |
| 1778243824 | 18.89° C | 10% | - | 0 mm | - | - | - |
| 1778243224 | 18.33° C | 10% | - | 0 mm | - | - | - |
| 1778242623 | 17.22° C | 98% | 1015 hPa | 0 mm | - | - | - |
| 1778242023 | 17.22° C | 98% | 1015 hPa | 0 mm | - | - | - |
| 1778241422 | 17.78° C | 98% | 1015 hPa | 0 mm | - | - | - |
* Rain latest hour (hover to see other rain measurements)
** Current wind speed in m/s (hover to see current wind gust speed)